sensor_id;sensor_type;location;lat;lon;timestamp;P1;durP1;ratioP1;P2;durP2;ratioP2
84866;SDS011;75123;51.788;4.654;2024-01-07T00:00:27;18.57;;;18.51;;
84866;SDS011;75123;51.788;4.654;2024-01-07T00:02:53;18.16;;;18.08;;
84866;SDS011;75123;51.788;4.654;2024-01-07T00:05:18;18.44;;;18.02;;
84866;SDS011;75123;51.788;4.654;2024-01-07T00:07:44;17.50;;;17.43;;
84866;SDS011;75123;51.788;4.654;2024-01-07T00:10:09;17.81;;;17.81;;
84866;SDS011;75123;51.788;4.654;2024-01-07T00:12:35;17.37;;;17.37;;
84866;SDS011;75123;51.788;4.654;2024-01-07T00:15:01;17.79;;;17.79;;
84866;SDS011;75123;51.788;4.654;2024-01-07T00:17:26;17.87;;;17.87;;
84866;SDS011;75123;51.788;4.654;2024-01-07T00:19:52;17.71;;;17.71;;
84866;SDS011;75123;51.788;4.654;2024-01-07T00:22:17;17.37;;;17.36;;
84866;SDS011;75123;51.788;4.654;2024-01-07T00:24:43;17.69;;;17.56;;
84866;SDS011;75123;51.788;4.654;2024-01-07T00:27:08;16.84;;;16.83;;
84866;SDS011;75123;51.788;4.654;2024-01-07T00:29:34;16.41;;;16.34;;
84866;SDS011;75123;51.788;4.654;2024-01-07T00:32:00;15.83;;;15.83;;
84866;SDS011;75123;51.788;4.654;2024-01-07T00:34:26;14.87;;;14.87;;
84866;SDS011;75123;51.788;4.654;2024-01-07T00:36:52;15.64;;;15.64;;
84866;SDS011;75123;51.788;4.654;2024-01-07T00:39:18;14.73;;;14.73;;
84866;SDS011;75123;51.788;4.654;2024-01-07T00:41:43;15.23;;;15.23;;
84866;SDS011;75123;51.788;4.654;2024-01-07T00:44:09;15.12;;;15.12;;
84866;SDS011;75123;51.788;4.654;2024-01-07T00:46:34;15.38;;;15.38;;
84866;SDS011;75123;51.788;4.654;2024-01-07T00:49:00;15.29;;;15.29;;
84866;SDS011;75123;51.788;4.654;2024-01-07T00:51:25;15.70;;;15.70;;
84866;SDS011;75123;51.788;4.654;2024-01-07T00:53:51;15.80;;;15.75;;
84866;SDS011;75123;51.788;4.654;2024-01-07T00:56:16;16.14;;;16.14;;
84866;SDS011;75123;51.788;4.654;2024-01-07T00:58:42;15.80;;;15.80;;
84866;SDS011;75123;51.788;4.654;2024-01-07T01:01:07;16.41;;;16.41;;
84866;SDS011;75123;51.788;4.654;2024-01-07T01:03:33;16.13;;;16.13;;
84866;SDS011;75123;51.788;4.654;2024-01-07T01:05:58;15.88;;;15.78;;
84866;SDS011;75123;51.788;4.654;2024-01-07T01:08:24;16.63;;;16.63;;
84866;SDS011;75123;51.788;4.654;2024-01-07T01:10:49;16.62;;;16.62;;
84866;SDS011;75123;51.788;4.654;2024-01-07T01:13:15;16.38;;;16.38;;
84866;SDS011;75123;51.788;4.654;2024-01-07T01:15:40;17.37;;;17.33;;
84866;SDS011;75123;51.788;4.654;2024-01-07T01:18:06;17.22;;;17.22;;
84866;SDS011;75123;51.788;4.654;2024-01-07T01:20:31;17.88;;;17.88;;
84866;SDS011;75123;51.788;4.654;2024-01-07T01:22:57;18.13;;;18.11;;
84866;SDS011;75123;51.788;4.654;2024-01-07T01:25:22;18.07;;;18.06;;
84866;SDS011;75123;51.788;4.654;2024-01-07T01:27:47;18.23;;;18.23;;
84866;SDS011;75123;51.788;4.654;2024-01-07T01:30:13;18.81;;;18.79;;
84866;SDS011;75123;51.788;4.654;2024-01-07T01:32:39;18.85;;;18.84;;
84866;SDS011;75123;51.788;4.654;2024-01-07T01:35:05;19.12;;;19.12;;
84866;SDS011;75123;51.788;4.654;2024-01-07T01:37:31;19.07;;;19.07;;
84866;SDS011;75123;51.788;4.654;2024-01-07T01:39:58;19.04;;;19.02;;
84866;SDS011;75123;51.788;4.654;2024-01-07T01:42:24;19.99;;;19.93;;
84866;SDS011;75123;51.788;4.654;2024-01-07T01:44:49;19.32;;;19.32;;
84866;SDS011;75123;51.788;4.654;2024-01-07T01:47:14;19.62;;;19.62;;
84866;SDS011;75123;51.788;4.654;2024-01-07T01:49:41;19.44;;;19.44;;
84866;SDS011;75123;51.788;4.654;2024-01-07T01:52:06;19.70;;;19.70;;
84866;SDS011;75123;51.788;4.654;2024-01-07T01:54:33;19.48;;;19.47;;
84866;SDS011;75123;51.788;4.654;2024-01-07T01:56:59;20.21;;;20.21;;
84866;SDS011;75123;51.788;4.654;2024-01-07T01:59:25;20.41;;;20.41;;
84866;SDS011;75123;51.788;4.654;2024-01-07T02:01:50;20.28;;;20.28;;
84866;SDS011;75123;51.788;4.654;2024-01-07T02:04:16;20.07;;;20.07;;
84866;SDS011;75123;51.788;4.654;2024-01-07T02:06:42;20.30;;;20.30;;
84866;SDS011;75123;51.788;4.654;2024-01-07T02:09:10;20.31;;;20.30;;
84866;SDS011;75123;51.788;4.654;2024-01-07T02:11:35;20.53;;;20.52;;
84866;SDS011;75123;51.788;4.654;2024-01-07T02:14:01;20.49;;;20.49;;
84866;SDS011;75123;51.788;4.654;2024-01-07T02:16:26;20.44;;;20.44;;
84866;SDS011;75123;51.788;4.654;2024-01-07T02:18:52;20.18;;;20.16;;
84866;SDS011;75123;51.788;4.654;2024-01-07T02:21:18;20.63;;;20.62;;
84866;SDS011;75123;51.788;4.654;2024-01-07T02:23:43;20.32;;;20.32;;
84866;SDS011;75123;51.788;4.654;2024-01-07T02:26:08;20.01;;;20.01;;
84866;SDS011;75123;51.788;4.654;2024-01-07T02:28:34;20.24;;;20.24;;
84866;SDS011;75123;51.788;4.654;2024-01-07T02:31:00;19.87;;;19.87;;
84866;SDS011;75123;51.788;4.654;2024-01-07T02:33:25;19.88;;;19.88;;
84866;SDS011;75123;51.788;4.654;2024-01-07T02:35:51;20.02;;;19.96;;
84866;SDS011;75123;51.788;4.654;2024-01-07T02:38:16;19.67;;;19.62;;
84866;SDS011;75123;51.788;4.654;2024-01-07T02:40:42;19.87;;;19.87;;
84866;SDS011;75123;51.788;4.654;2024-01-07T02:43:07;20.76;;;20.67;;
84866;SDS011;75123;51.788;4.654;2024-01-07T02:45:33;20.30;;;20.23;;
84866;SDS011;75123;51.788;4.654;2024-01-07T02:47:58;19.75;;;19.75;;
84866;SDS011;75123;51.788;4.654;2024-01-07T02:50:24;19.38;;;19.37;;
84866;SDS011;75123;51.788;4.654;2024-01-07T02:52:49;18.95;;;18.95;;
84866;SDS011;75123;51.788;4.654;2024-01-07T02:55:15;19.32;;;19.27;;
84866;SDS011;75123;51.788;4.654;2024-01-07T02:57:40;19.45;;;19.45;;
84866;SDS011;75123;51.788;4.654;2024-01-07T03:00:06;19.90;;;19.90;;
84866;SDS011;75123;51.788;4.654;2024-01-07T03:02:33;19.62;;;19.60;;
84866;SDS011;75123;51.788;4.654;2024-01-07T03:04:58;19.80;;;19.80;;
84866;SDS011;75123;51.788;4.654;2024-01-07T03:07:24;19.93;;;19.92;;
84866;SDS011;75123;51.788;4.654;2024-01-07T03:09:50;19.89;;;19.88;;
84866;SDS011;75123;51.788;4.654;2024-01-07T03:12:15;20.64;;;20.61;;
84866;SDS011;75123;51.788;4.654;2024-01-07T03:14:41;20.44;;;20.35;;
84866;SDS011;75123;51.788;4.654;2024-01-07T03:17:07;20.05;;;20.01;;
84866;SDS011;75123;51.788;4.654;2024-01-07T03:19:32;19.72;;;19.72;;
84866;SDS011;75123;51.788;4.654;2024-01-07T03:21:58;20.18;;;20.18;;
84866;SDS011;75123;51.788;4.654;2024-01-07T03:24:23;20.64;;;20.29;;
84866;SDS011;75123;51.788;4.654;2024-01-07T03:26:49;19.69;;;19.61;;
84866;SDS011;75123;51.788;4.654;2024-01-07T03:29:15;19.45;;;19.35;;
84866;SDS011;75123;51.788;4.654;2024-01-07T03:31:40;20.50;;;20.27;;
84866;SDS011;75123;51.788;4.654;2024-01-07T03:34:06;19.82;;;19.82;;
84866;SDS011;75123;51.788;4.654;2024-01-07T03:36:31;20.65;;;20.63;;
84866;SDS011;75123;51.788;4.654;2024-01-07T03:38:57;20.32;;;20.28;;
84866;SDS011;75123;51.788;4.654;2024-01-07T03:41:22;20.94;;;20.91;;
84866;SDS011;75123;51.788;4.654;2024-01-07T03:43:48;20.97;;;20.79;;
84866;SDS011;75123;51.788;4.654;2024-01-07T03:46:14;21.42;;;21.32;;
84866;SDS011;75123;51.788;4.654;2024-01-07T03:48:41;22.94;;;22.46;;
84866;SDS011;75123;51.788;4.654;2024-01-07T03:51:07;22.07;;;21.81;;
84866;SDS011;75123;51.788;4.654;2024-01-07T03:53:33;22.39;;;22.19;;
84866;SDS011;75123;51.788;4.654;2024-01-07T03:55:58;22.06;;;22.01;;
84866;SDS011;75123;51.788;4.654;2024-01-07T03:58:24;23.04;;;22.83;;
84866;SDS011;75123;51.788;4.654;2024-01-07T04:00:50;23.14;;;22.83;;
84866;SDS011;75123;51.788;4.654;2024-01-07T04:03:15;25.27;;;24.94;;
84866;SDS011;75123;51.788;4.654;2024-01-07T04:05:41;25.18;;;24.81;;
84866;SDS011;75123;51.788;4.654;2024-01-07T04:08:09;24.91;;;24.70;;
84866;SDS011;75123;51.788;4.654;2024-01-07T04:10:35;25.34;;;24.96;;
84866;SDS011;75123;51.788;4.654;2024-01-07T04:13:00;25.27;;;24.73;;
84866;SDS011;75123;51.788;4.654;2024-01-07T04:15:26;24.79;;;24.71;;
84866;SDS011;75123;51.788;4.654;2024-01-07T04:17:51;25.66;;;25.37;;
84866;SDS011;75123;51.788;4.654;2024-01-07T04:20:17;25.94;;;25.76;;
84866;SDS011;75123;51.788;4.654;2024-01-07T04:22:42;25.89;;;25.48;;
84866;SDS011;75123;51.788;4.654;2024-01-07T04:25:08;25.59;;;25.58;;
84866;SDS011;75123;51.788;4.654;2024-01-07T04:27:37;26.32;;;26.31;;
84866;SDS011;75123;51.788;4.654;2024-01-07T04:30:03;28.27;;;27.98;;
84866;SDS011;75123;51.788;4.654;2024-01-07T04:32:29;29.18;;;29.08;;
84866;SDS011;75123;51.788;4.654;2024-01-07T04:34:55;29.17;;;28.92;;
84866;SDS011;75123;51.788;4.654;2024-01-07T04:37:22;31.51;;;31.14;;
84866;SDS011;75123;51.788;4.654;2024-01-07T04:39:47;30.71;;;30.34;;
84866;SDS011;75123;51.788;4.654;2024-01-07T04:42:13;30.68;;;29.86;;
84866;SDS011;75123;51.788;4.654;2024-01-07T04:44:38;30.90;;;29.95;;
84866;SDS011;75123;51.788;4.654;2024-01-07T04:47:04;31.27;;;30.65;;
84866;SDS011;75123;51.788;4.654;2024-01-07T04:49:29;30.74;;;30.17;;
84866;SDS011;75123;51.788;4.654;2024-01-07T04:51:55;30.77;;;29.92;;
84866;SDS011;75123;51.788;4.654;2024-01-07T04:54:20;30.30;;;29.50;;
84866;SDS011;75123;51.788;4.654;2024-01-07T04:56:46;29.73;;;29.13;;
84866;SDS011;75123;51.788;4.654;2024-01-07T04:59:11;28.63;;;28.28;;
84866;SDS011;75123;51.788;4.654;2024-01-07T05:01:37;28.68;;;28.52;;
84866;SDS011;75123;51.788;4.654;2024-01-07T05:04:02;29.89;;;29.00;;
84866;SDS011;75123;51.788;4.654;2024-01-07T05:06:28;29.28;;;28.74;;
84866;SDS011;75123;51.788;4.654;2024-01-07T05:08:53;28.31;;;28.04;;
84866;SDS011;75123;51.788;4.654;2024-01-07T05:11:19;28.47;;;28.02;;
84866;SDS011;75123;51.788;4.654;2024-01-07T05:13:44;28.03;;;27.50;;
84866;SDS011;75123;51.788;4.654;2024-01-07T05:16:17;28.03;;;28.01;;
84866;SDS011;75123;51.788;4.654;2024-01-07T05:18:44;27.52;;;27.44;;
84866;SDS011;75123;51.788;4.654;2024-01-07T05:21:14;28.54;;;28.30;;
84866;SDS011;75123;51.788;4.654;2024-01-07T05:23:45;28.09;;;27.88;;
84866;SDS011;75123;51.788;4.654;2024-01-07T05:26:11;29.00;;;28.69;;
84866;SDS011;75123;51.788;4.654;2024-01-07T05:28:36;29.21;;;28.92;;
84866;SDS011;75123;51.788;4.654;2024-01-07T05:31:02;28.00;;;27.80;;
84866;SDS011;75123;51.788;4.654;2024-01-07T05:33:27;28.33;;;27.83;;
84866;SDS011;75123;51.788;4.654;2024-01-07T05:35:53;28.33;;;27.70;;
84866;SDS011;75123;51.788;4.654;2024-01-07T05:38:18;28.36;;;27.89;;
84866;SDS011;75123;51.788;4.654;2024-01-07T05:40:44;29.22;;;28.65;;
84866;SDS011;75123;51.788;4.654;2024-01-07T05:43:09;29.56;;;28.92;;
84866;SDS011;75123;51.788;4.654;2024-01-07T05:45:35;29.07;;;28.58;;
84866;SDS011;75123;51.788;4.654;2024-01-07T05:48:00;29.79;;;29.32;;
84866;SDS011;75123;51.788;4.654;2024-01-07T05:50:26;28.81;;;28.40;;
84866;SDS011;75123;51.788;4.654;2024-01-07T05:52:51;30.34;;;29.91;;
84866;SDS011;75123;51.788;4.654;2024-01-07T05:55:17;31.12;;;30.82;;
84866;SDS011;75123;51.788;4.654;2024-01-07T05:57:43;31.14;;;30.88;;
84866;SDS011;75123;51.788;4.654;2024-01-07T06:00:08;32.23;;;31.52;;
84866;SDS011;75123;51.788;4.654;2024-01-07T06:02:36;30.68;;;30.55;;
84866;SDS011;75123;51.788;4.654;2024-01-07T06:05:02;30.19;;;30.16;;
84866;SDS011;75123;51.788;4.654;2024-01-07T06:07:28;30.84;;;30.34;;
84866;SDS011;75123;51.788;4.654;2024-01-07T06:09:53;30.17;;;30.04;;
84866;SDS011;75123;51.788;4.654;2024-01-07T06:12:19;30.46;;;30.16;;
84866;SDS011;75123;51.788;4.654;2024-01-07T06:14:44;30.42;;;30.17;;
84866;SDS011;75123;51.788;4.654;2024-01-07T06:17:10;30.15;;;30.01;;
84866;SDS011;75123;51.788;4.654;2024-01-07T06:19:36;30.25;;;30.09;;
84866;SDS011;75123;51.788;4.654;2024-01-07T06:22:01;30.55;;;30.19;;
84866;SDS011;75123;51.788;4.654;2024-01-07T06:24:27;30.52;;;30.15;;
84866;SDS011;75123;51.788;4.654;2024-01-07T06:26:52;29.18;;;28.94;;
84866;SDS011;75123;51.788;4.654;2024-01-07T06:29:18;28.76;;;28.68;;
84866;SDS011;75123;51.788;4.654;2024-01-07T06:31:44;29.40;;;29.18;;
84866;SDS011;75123;51.788;4.654;2024-01-07T06:34:10;28.65;;;28.44;;
84866;SDS011;75123;51.788;4.654;2024-01-07T06:36:38;28.48;;;28.30;;
84866;SDS011;75123;51.788;4.654;2024-01-07T06:39:06;28.88;;;28.67;;
84866;SDS011;75123;51.788;4.654;2024-01-07T06:41:33;28.03;;;27.97;;
84866;SDS011;75123;51.788;4.654;2024-01-07T06:43:59;28.54;;;28.23;;
84866;SDS011;75123;51.788;4.654;2024-01-07T06:46:24;28.27;;;28.15;;
84866;SDS011;75123;51.788;4.654;2024-01-07T06:48:50;27.79;;;27.55;;
84866;SDS011;75123;51.788;4.654;2024-01-07T06:51:15;28.33;;;27.92;;
84866;SDS011;75123;51.788;4.654;2024-01-07T06:53:41;27.01;;;26.78;;
84866;SDS011;75123;51.788;4.654;2024-01-07T06:56:06;27.14;;;26.90;;
84866;SDS011;75123;51.788;4.654;2024-01-07T06:58:32;27.36;;;27.07;;
84866;SDS011;75123;51.788;4.654;2024-01-07T07:00:57;27.13;;;27.01;;
84866;SDS011;75123;51.788;4.654;2024-01-07T07:03:23;27.03;;;26.95;;
84866;SDS011;75123;51.788;4.654;2024-01-07T07:05:48;27.61;;;27.43;;
84866;SDS011;75123;51.788;4.654;2024-01-07T07:08:14;26.55;;;26.51;;
84866;SDS011;75123;51.788;4.654;2024-01-07T07:10:40;27.35;;;27.32;;
84866;SDS011;75123;51.788;4.654;2024-01-07T07:13:05;26.09;;;26.06;;
84866;SDS011;75123;51.788;4.654;2024-01-07T07:15:31;26.56;;;26.54;;
84866;SDS011;75123;51.788;4.654;2024-01-07T07:17:56;24.89;;;24.82;;
84866;SDS011;75123;51.788;4.654;2024-01-07T07:20:22;25.74;;;25.58;;
84866;SDS011;75123;51.788;4.654;2024-01-07T07:22:47;26.00;;;25.81;;
84866;SDS011;75123;51.788;4.654;2024-01-07T07:25:13;25.45;;;25.39;;
84866;SDS011;75123;51.788;4.654;2024-01-07T07:27:38;25.20;;;24.97;;
84866;SDS011;75123;51.788;4.654;2024-01-07T07:30:04;25.67;;;25.67;;
84866;SDS011;75123;51.788;4.654;2024-01-07T07:32:30;24.96;;;24.92;;
84866;SDS011;75123;51.788;4.654;2024-01-07T07:34:56;25.30;;;25.30;;
84866;SDS011;75123;51.788;4.654;2024-01-07T07:37:21;25.75;;;25.74;;
84866;SDS011;75123;51.788;4.654;2024-01-07T07:39:47;25.61;;;25.60;;
84866;SDS011;75123;51.788;4.654;2024-01-07T07:42:12;26.41;;;26.38;;
84866;SDS011;75123;51.788;4.654;2024-01-07T07:44:38;26.63;;;26.63;;
84866;SDS011;75123;51.788;4.654;2024-01-07T07:47:04;26.50;;;26.49;;
84866;SDS011;75123;51.788;4.654;2024-01-07T07:49:29;27.92;;;27.83;;
84866;SDS011;75123;51.788;4.654;2024-01-07T07:51:55;27.35;;;27.35;;
84866;SDS011;75123;51.788;4.654;2024-01-07T07:54:21;28.44;;;28.43;;
84866;SDS011;75123;51.788;4.654;2024-01-07T07:56:47;28.49;;;28.48;;
84866;SDS011;75123;51.788;4.654;2024-01-07T07:59:13;28.02;;;28.02;;
84866;SDS011;75123;51.788;4.654;2024-01-07T08:01:38;27.24;;;27.24;;
84866;SDS011;75123;51.788;4.654;2024-01-07T08:04:04;26.64;;;26.63;;
84866;SDS011;75123;51.788;4.654;2024-01-07T08:06:30;25.33;;;25.26;;
84866;SDS011;75123;51.788;4.654;2024-01-07T08:08:56;26.09;;;26.09;;
84866;SDS011;75123;51.788;4.654;2024-01-07T08:11:21;25.78;;;25.70;;
84866;SDS011;75123;51.788;4.654;2024-01-07T08:13:47;25.97;;;25.96;;
84866;SDS011;75123;51.788;4.654;2024-01-07T08:16:12;26.06;;;25.94;;
84866;SDS011;75123;51.788;4.654;2024-01-07T08:18:38;25.68;;;25.68;;
84866;SDS011;75123;51.788;4.654;2024-01-07T08:21:04;25.95;;;25.95;;
84866;SDS011;75123;51.788;4.654;2024-01-07T08:23:29;26.22;;;25.98;;
84866;SDS011;75123;51.788;4.654;2024-01-07T08:25:55;26.02;;;26.02;;
84866;SDS011;75123;51.788;4.654;2024-01-07T08:28:21;26.21;;;26.20;;
84866;SDS011;75123;51.788;4.654;2024-01-07T08:30:47;26.19;;;26.11;;
84866;SDS011;75123;51.788;4.654;2024-01-07T08:33:14;26.48;;;26.29;;
84866;SDS011;75123;51.788;4.654;2024-01-07T08:35:39;25.36;;;25.18;;
84866;SDS011;75123;51.788;4.654;2024-01-07T08:38:05;25.74;;;25.74;;
84866;SDS011;75123;51.788;4.654;2024-01-07T08:40:30;25.37;;;25.34;;
84866;SDS011;75123;51.788;4.654;2024-01-07T08:42:56;24.99;;;24.97;;
84866;SDS011;75123;51.788;4.654;2024-01-07T08:45:22;25.37;;;25.37;;
84866;SDS011;75123;51.788;4.654;2024-01-07T08:47:47;24.31;;;24.30;;
84866;SDS011;75123;51.788;4.654;2024-01-07T08:50:13;24.30;;;24.30;;
84866;SDS011;75123;51.788;4.654;2024-01-07T08:52:38;24.87;;;24.87;;
84866;SDS011;75123;51.788;4.654;2024-01-07T08:55:04;24.46;;;24.40;;
84866;SDS011;75123;51.788;4.654;2024-01-07T08:57:31;23.87;;;23.87;;
84866;SDS011;75123;51.788;4.654;2024-01-07T08:59:57;24.00;;;24.00;;
84866;SDS011;75123;51.788;4.654;2024-01-07T09:02:23;22.33;;;22.33;;
84866;SDS011;75123;51.788;4.654;2024-01-07T09:04:49;23.62;;;23.58;;
84866;SDS011;75123;51.788;4.654;2024-01-07T09:07:14;23.41;;;23.41;;
84866;SDS011;75123;51.788;4.654;2024-01-07T09:09:41;23.67;;;23.65;;
84866;SDS011;75123;51.788;4.654;2024-01-07T09:12:07;23.34;;;23.34;;
84866;SDS011;75123;51.788;4.654;2024-01-07T09:14:33;23.71;;;23.71;;
84866;SDS011;75123;51.788;4.654;2024-01-07T09:16:58;23.70;;;23.69;;
84866;SDS011;75123;51.788;4.654;2024-01-07T09:19:23;22.98;;;22.98;;
84866;SDS011;75123;51.788;4.654;2024-01-07T09:21:49;22.55;;;22.55;;
84866;SDS011;75123;51.788;4.654;2024-01-07T09:24:14;22.75;;;22.75;;
84866;SDS011;75123;51.788;4.654;2024-01-07T09:26:40;23.00;;;22.97;;
84866;SDS011;75123;51.788;4.654;2024-01-07T09:29:06;21.81;;;21.79;;
84866;SDS011;75123;51.788;4.654;2024-01-07T09:31:31;22.45;;;22.44;;
84866;SDS011;75123;51.788;4.654;2024-01-07T09:33:56;22.04;;;22.04;;
84866;SDS011;75123;51.788;4.654;2024-01-07T09:36:22;22.40;;;22.36;;
84866;SDS011;75123;51.788;4.654;2024-01-07T09:38:47;22.59;;;22.59;;
84866;SDS011;75123;51.788;4.654;2024-01-07T09:41:13;23.06;;;23.06;;
84866;SDS011;75123;51.788;4.654;2024-01-07T09:43:38;23.38;;;23.38;;
84866;SDS011;75123;51.788;4.654;2024-01-07T09:46:04;23.44;;;23.42;;
84866;SDS011;75123;51.788;4.654;2024-01-07T09:48:29;23.98;;;23.98;;
84866;SDS011;75123;51.788;4.654;2024-01-07T09:50:56;23.44;;;23.44;;
84866;SDS011;75123;51.788;4.654;2024-01-07T09:53:25;23.87;;;23.83;;
84866;SDS011;75123;51.788;4.654;2024-01-07T09:58:27;24.12;;;24.10;;
84866;SDS011;75123;51.788;4.654;2024-01-07T10:00:53;24.34;;;24.33;;
84866;SDS011;75123;51.788;4.654;2024-01-07T10:03:19;23.83;;;23.81;;
84866;SDS011;75123;51.788;4.654;2024-01-07T10:05:45;23.62;;;23.62;;
84866;SDS011;75123;51.788;4.654;2024-01-07T10:08:10;24.16;;;24.15;;
84866;SDS011;75123;51.788;4.654;2024-01-07T10:10:36;24.53;;;24.53;;
84866;SDS011;75123;51.788;4.654;2024-01-07T10:13:02;24.16;;;24.16;;
84866;SDS011;75123;51.788;4.654;2024-01-07T10:15:27;23.92;;;23.91;;
84866;SDS011;75123;51.788;4.654;2024-01-07T10:17:56;23.72;;;23.72;;
84866;SDS011;75123;51.788;4.654;2024-01-07T10:20:31;23.78;;;23.74;;
84866;SDS011;75123;51.788;4.654;2024-01-07T10:22:58;23.10;;;23.10;;
84866;SDS011;75123;51.788;4.654;2024-01-07T10:25:24;22.55;;;22.55;;
84866;SDS011;75123;51.788;4.654;2024-01-07T10:27:49;22.39;;;22.39;;
84866;SDS011;75123;51.788;4.654;2024-01-07T10:30:15;22.81;;;22.81;;
84866;SDS011;75123;51.788;4.654;2024-01-07T10:32:41;22.23;;;22.23;;
84866;SDS011;75123;51.788;4.654;2024-01-07T10:35:07;22.54;;;22.54;;
84866;SDS011;75123;51.788;4.654;2024-01-07T10:37:37;23.55;;;23.55;;
84866;SDS011;75123;51.788;4.654;2024-01-07T10:40:04;23.69;;;23.69;;
84866;SDS011;75123;51.788;4.654;2024-01-07T10:42:32;22.82;;;22.82;;
84866;SDS011;75123;51.788;4.654;2024-01-07T10:45:01;23.45;;;23.45;;
84866;SDS011;75123;51.788;4.654;2024-01-07T10:47:29;22.55;;;22.55;;
84866;SDS011;75123;51.788;4.654;2024-01-07T10:49:58;22.39;;;22.39;;
84866;SDS011;75123;51.788;4.654;2024-01-07T10:52:26;20.90;;;20.90;;
84866;SDS011;75123;51.788;4.654;2024-01-07T10:54:52;21.35;;;21.35;;
84866;SDS011;75123;51.788;4.654;2024-01-07T10:57:34;21.95;;;21.95;;
84866;SDS011;75123;51.788;4.654;2024-01-07T11:00:15;20.89;;;20.89;;
84866;SDS011;75123;51.788;4.654;2024-01-07T11:02:54;20.82;;;20.82;;
84866;SDS011;75123;51.788;4.654;2024-01-07T11:05:44;21.15;;;21.15;;
84866;SDS011;75123;51.788;4.654;2024-01-07T11:08:19;20.66;;;20.66;;
84866;SDS011;75123;51.788;4.654;2024-01-07T11:11:35;20.86;;;20.86;;
84866;SDS011;75123;51.788;4.654;2024-01-07T11:13:51;20.64;;;20.64;;
84866;SDS011;75123;51.788;4.654;2024-01-07T11:16:40;21.58;;;21.58;;
84866;SDS011;75123;51.788;4.654;2024-01-07T11:19:06;20.67;;;20.67;;
84866;SDS011;75123;51.788;4.654;2024-01-07T11:21:31;20.88;;;20.88;;
84866;SDS011;75123;51.788;4.654;2024-01-07T11:23:57;20.11;;;20.11;;
84866;SDS011;75123;51.788;4.654;2024-01-07T11:26:22;21.48;;;21.48;;
84866;SDS011;75123;51.788;4.654;2024-01-07T11:28:52;21.56;;;21.56;;
84866;SDS011;75123;51.788;4.654;2024-01-07T11:31:25;21.28;;;21.28;;
84866;SDS011;75123;51.788;4.654;2024-01-07T11:34:07;21.55;;;21.55;;
84866;SDS011;75123;51.788;4.654;2024-01-07T11:36:34;21.66;;;21.66;;
84866;SDS011;75123;51.788;4.654;2024-01-07T11:39:01;20.69;;;20.69;;
84866;SDS011;75123;51.788;4.654;2024-01-07T11:41:27;20.56;;;20.56;;
84866;SDS011;75123;51.788;4.654;2024-01-07T11:43:57;19.49;;;19.49;;
84866;SDS011;75123;51.788;4.654;2024-01-07T11:46:27;19.32;;;19.32;;
84866;SDS011;75123;51.788;4.654;2024-01-07T11:48:57;19.67;;;19.67;;
84866;SDS011;75123;51.788;4.654;2024-01-07T11:51:24;19.60;;;19.60;;
84866;SDS011;75123;51.788;4.654;2024-01-07T11:53:56;19.58;;;19.58;;
84866;SDS011;75123;51.788;4.654;2024-01-07T11:56:22;18.98;;;18.98;;
84866;SDS011;75123;51.788;4.654;2024-01-07T11:58:49;18.24;;;18.24;;
84866;SDS011;75123;51.788;4.654;2024-01-07T12:01:15;16.97;;;16.97;;
84866;SDS011;75123;51.788;4.654;2024-01-07T12:03:43;17.01;;;17.01;;
84866;SDS011;75123;51.788;4.654;2024-01-07T12:06:08;16.44;;;16.44;;
84866;SDS011;75123;51.788;4.654;2024-01-07T12:08:38;15.65;;;15.65;;
84866;SDS011;75123;51.788;4.654;2024-01-07T12:11:04;15.46;;;15.46;;
84866;SDS011;75123;51.788;4.654;2024-01-07T12:13:30;14.97;;;14.97;;
84866;SDS011;75123;51.788;4.654;2024-01-07T12:15:56;13.95;;;13.95;;
84866;SDS011;75123;51.788;4.654;2024-01-07T12:18:22;13.36;;;13.36;;
84866;SDS011;75123;51.788;4.654;2024-01-07T12:20:54;13.00;;;13.00;;
84866;SDS011;75123;51.788;4.654;2024-01-07T12:23:23;12.67;;;12.67;;
84866;SDS011;75123;51.788;4.654;2024-01-07T12:25:50;13.23;;;13.23;;
84866;SDS011;75123;51.788;4.654;2024-01-07T12:28:16;12.75;;;12.75;;
84866;SDS011;75123;51.788;4.654;2024-01-07T12:30:43;12.74;;;12.74;;
84866;SDS011;75123;51.788;4.654;2024-01-07T12:33:08;11.83;;;11.83;;
84866;SDS011;75123;51.788;4.654;2024-01-07T12:35:34;12.18;;;12.18;;
84866;SDS011;75123;51.788;4.654;2024-01-07T12:37:59;12.67;;;12.67;;
84866;SDS011;75123;51.788;4.654;2024-01-07T12:40:25;10.97;;;10.97;;
84866;SDS011;75123;51.788;4.654;2024-01-07T12:42:52;11.23;;;11.23;;
84866;SDS011;75123;51.788;4.654;2024-01-07T12:45:18;11.12;;;11.12;;
84866;SDS011;75123;51.788;4.654;2024-01-07T12:47:43;11.87;;;11.87;;
84866;SDS011;75123;51.788;4.654;2024-01-07T12:50:09;11.02;;;11.02;;
84866;SDS011;75123;51.788;4.654;2024-01-07T12:52:36;11.27;;;11.27;;
84866;SDS011;75123;51.788;4.654;2024-01-07T12:55:02;11.19;;;11.19;;
84866;SDS011;75123;51.788;4.654;2024-01-07T12:57:28;11.09;;;11.09;;
84866;SDS011;75123;51.788;4.654;2024-01-07T12:59:53;10.67;;;10.67;;
84866;SDS011;75123;51.788;4.654;2024-01-07T13:02:19;10.58;;;10.58;;
84866;SDS011;75123;51.788;4.654;2024-01-07T13:04:45;10.86;;;10.86;;
84866;SDS011;75123;51.788;4.654;2024-01-07T13:07:11;10.00;;;10.00;;
84866;SDS011;75123;51.788;4.654;2024-01-07T13:09:39;9.29;;;9.29;;
84866;SDS011;75123;51.788;4.654;2024-01-07T13:12:04;8.71;;;8.71;;
84866;SDS011;75123;51.788;4.654;2024-01-07T13:14:30;7.99;;;7.99;;
84866;SDS011;75123;51.788;4.654;2024-01-07T13:16:55;7.82;;;7.82;;
84866;SDS011;75123;51.788;4.654;2024-01-07T13:19:21;7.55;;;7.55;;
84866;SDS011;75123;51.788;4.654;2024-01-07T13:21:47;6.91;;;6.91;;
84866;SDS011;75123;51.788;4.654;2024-01-07T13:24:12;6.82;;;6.82;;
84866;SDS011;75123;51.788;4.654;2024-01-07T13:26:38;6.51;;;6.51;;
84866;SDS011;75123;51.788;4.654;2024-01-07T13:29:03;6.76;;;6.76;;
84866;SDS011;75123;51.788;4.654;2024-01-07T13:31:29;7.07;;;7.07;;
84866;SDS011;75123;51.788;4.654;2024-01-07T13:33:55;6.96;;;6.96;;
84866;SDS011;75123;51.788;4.654;2024-01-07T13:36:20;6.58;;;6.58;;
84866;SDS011;75123;51.788;4.654;2024-01-07T13:38:46;6.54;;;6.54;;
84866;SDS011;75123;51.788;4.654;2024-01-07T13:41:15;6.86;;;6.86;;
84866;SDS011;75123;51.788;4.654;2024-01-07T13:43:41;6.30;;;6.30;;
84866;SDS011;75123;51.788;4.654;2024-01-07T13:46:07;6.15;;;6.15;;
84866;SDS011;75123;51.788;4.654;2024-01-07T13:48:34;6.45;;;6.45;;
84866;SDS011;75123;51.788;4.654;2024-01-07T13:50:59;6.31;;;6.31;;
84866;SDS011;75123;51.788;4.654;2024-01-07T13:53:25;6.41;;;6.41;;
84866;SDS011;75123;51.788;4.654;2024-01-07T13:55:51;6.48;;;6.48;;
84866;SDS011;75123;51.788;4.654;2024-01-07T13:58:16;6.17;;;6.17;;
84866;SDS011;75123;51.788;4.654;2024-01-07T14:00:42;6.00;;;6.00;;
84866;SDS011;75123;51.788;4.654;2024-01-07T14:03:07;5.90;;;5.90;;
84866;SDS011;75123;51.788;4.654;2024-01-07T14:05:33;5.86;;;5.86;;
84866;SDS011;75123;51.788;4.654;2024-01-07T14:07:58;5.66;;;5.66;;
84866;SDS011;75123;51.788;4.654;2024-01-07T14:10:24;5.60;;;5.60;;
84866;SDS011;75123;51.788;4.654;2024-01-07T14:12:49;5.53;;;5.53;;
84866;SDS011;75123;51.788;4.654;2024-01-07T14:15:15;5.09;;;5.09;;
84866;SDS011;75123;51.788;4.654;2024-01-07T14:17:43;4.93;;;4.93;;
84866;SDS011;75123;51.788;4.654;2024-01-07T14:20:08;5.42;;;5.42;;